sensor_id;sensor_type;location;lat;lon;timestamp;P1;durP1;ratioP1;P2;durP2;ratioP2
8421;SDS011;4248;48.196;10.924;2023-03-01T00:00:37;24.38;;;12.82;;
8421;SDS011;4248;48.196;10.924;2023-03-01T00:03:03;20.30;;;10.87;;
8421;SDS011;4248;48.196;10.924;2023-03-01T00:05:29;19.07;;;11.27;;
8421;SDS011;4248;48.196;10.924;2023-03-01T00:07:55;19.30;;;12.20;;
8421;SDS011;4248;48.196;10.924;2023-03-01T00:10:21;24.20;;;12.57;;
8421;SDS011;4248;48.196;10.924;2023-03-01T00:12:47;21.13;;;13.27;;
8421;SDS011;4248;48.196;10.924;2023-03-01T00:15:13;22.77;;;13.30;;
8421;SDS011;4248;48.196;10.924;2023-03-01T00:17:39;29.20;;;12.40;;
8421;SDS011;4248;48.196;10.924;2023-03-01T00:20:04;20.50;;;11.50;;
8421;SDS011;4248;48.196;10.924;2023-03-01T00:22:35;21.42;;;12.43;;
8421;SDS011;4248;48.196;10.924;2023-03-01T00:25:04;19.13;;;12.13;;
8421;SDS011;4248;48.196;10.924;2023-03-01T00:27:30;22.23;;;13.43;;
8421;SDS011;4248;48.196;10.924;2023-03-01T00:29:56;20.17;;;11.60;;
8421;SDS011;4248;48.196;10.924;2023-03-01T00:32:21;21.20;;;12.20;;
8421;SDS011;4248;48.196;10.924;2023-03-01T00:34:47;21.53;;;12.00;;
8421;SDS011;4248;48.196;10.924;2023-03-01T00:37:19;22.20;;;12.55;;
8421;SDS011;4248;48.196;10.924;2023-03-01T00:39:49;23.50;;;12.38;;
8421;SDS011;4248;48.196;10.924;2023-03-01T00:42:15;25.35;;;12.32;;
8421;SDS011;4248;48.196;10.924;2023-03-01T00:44:41;19.55;;;12.00;;
8421;SDS011;4248;48.196;10.924;2023-03-01T00:47:07;23.73;;;12.17;;
8421;SDS011;4248;48.196;10.924;2023-03-01T00:49:33;21.80;;;12.48;;
8421;SDS011;4248;48.196;10.924;2023-03-01T00:51:59;24.35;;;12.95;;
8421;SDS011;4248;48.196;10.924;2023-03-01T00:54:25;22.58;;;12.40;;
8421;SDS011;4248;48.196;10.924;2023-03-01T00:56:50;23.37;;;12.40;;
8421;SDS011;4248;48.196;10.924;2023-03-01T00:59:16;20.77;;;12.13;;
8421;SDS011;4248;48.196;10.924;2023-03-01T01:01:42;21.90;;;11.60;;
8421;SDS011;4248;48.196;10.924;2023-03-01T01:04:09;27.20;;;13.30;;
8421;SDS011;4248;48.196;10.924;2023-03-01T01:06:37;21.15;;;13.40;;
8421;SDS011;4248;48.196;10.924;2023-03-01T01:09:07;23.33;;;13.05;;
8421;SDS011;4248;48.196;10.924;2023-03-01T01:11:34;24.23;;;12.95;;
8421;SDS011;4248;48.196;10.924;2023-03-01T01:14:01;24.40;;;13.07;;
8421;SDS011;4248;48.196;10.924;2023-03-01T01:16:28;18.77;;;12.00;;
8421;SDS011;4248;48.196;10.924;2023-03-01T01:18:55;19.83;;;11.85;;
8421;SDS011;4248;48.196;10.924;2023-03-01T01:21:22;21.65;;;12.15;;
8421;SDS011;4248;48.196;10.924;2023-03-01T01:23:50;21.92;;;12.27;;
8421;SDS011;4248;48.196;10.924;2023-03-01T01:26:18;24.10;;;13.23;;
8421;SDS011;4248;48.196;10.924;2023-03-01T01:28:46;20.98;;;12.52;;
8421;SDS011;4248;48.196;10.924;2023-03-01T01:31:12;24.10;;;12.70;;
8421;SDS011;4248;48.196;10.924;2023-03-01T01:33:39;23.92;;;12.27;;
8421;SDS011;4248;48.196;10.924;2023-03-01T01:36:06;24.15;;;13.02;;
8421;SDS011;4248;48.196;10.924;2023-03-01T01:38:33;28.00;;;12.48;;
8421;SDS011;4248;48.196;10.924;2023-03-01T01:40:59;24.92;;;12.70;;
8421;SDS011;4248;48.196;10.924;2023-03-01T01:45:55;25.13;;;12.60;;
8421;SDS011;4248;48.196;10.924;2023-03-01T01:48:26;21.27;;;11.85;;
8421;SDS011;4248;48.196;10.924;2023-03-01T01:51:05;23.77;;;11.63;;
8421;SDS011;4248;48.196;10.924;2023-03-01T01:53:34;23.10;;;11.90;;
8421;SDS011;4248;48.196;10.924;2023-03-01T01:56:01;22.52;;;12.05;;
8421;SDS011;4248;48.196;10.924;2023-03-01T01:58:28;21.90;;;11.98;;
8421;SDS011;4248;48.196;10.924;2023-03-01T02:00:55;23.23;;;11.90;;
8421;SDS011;4248;48.196;10.924;2023-03-01T02:03:25;18.63;;;11.27;;
8421;SDS011;4248;48.196;10.924;2023-03-01T02:08:20;19.07;;;12.07;;
8421;SDS011;4248;48.196;10.924;2023-03-01T02:10:48;22.45;;;12.13;;
8421;SDS011;4248;48.196;10.924;2023-03-01T02:13:15;23.00;;;12.50;;
8421;SDS011;4248;48.196;10.924;2023-03-01T02:15:40;22.00;;;13.13;;
8421;SDS011;4248;48.196;10.924;2023-03-01T02:18:09;22.45;;;12.20;;
8421;SDS011;4248;48.196;10.924;2023-03-01T02:23:23;22.70;;;12.05;;
8421;SDS011;4248;48.196;10.924;2023-03-01T02:28:32;22.10;;;12.63;;
8421;SDS011;4248;48.196;10.924;2023-03-01T02:31:00;20.02;;;12.20;;
8421;SDS011;4248;48.196;10.924;2023-03-01T02:33:46;22.75;;;13.52;;
8421;SDS011;4248;48.196;10.924;2023-03-01T02:36:15;26.55;;;13.73;;
8421;SDS011;4248;48.196;10.924;2023-03-01T02:38:47;21.98;;;11.95;;
8421;SDS011;4248;48.196;10.924;2023-03-01T02:41:15;19.63;;;11.93;;
8421;SDS011;4248;48.196;10.924;2023-03-01T02:43:44;20.98;;;12.35;;
8421;SDS011;4248;48.196;10.924;2023-03-01T02:46:14;20.77;;;13.23;;
8421;SDS011;4248;48.196;10.924;2023-03-01T02:48:48;23.95;;;12.90;;
8421;SDS011;4248;48.196;10.924;2023-03-01T02:57:18;20.30;;;11.88;;
8421;SDS011;4248;48.196;10.924;2023-03-01T02:59:46;18.23;;;10.55;;
8421;SDS011;4248;48.196;10.924;2023-03-01T03:02:19;21.42;;;12.48;;
8421;SDS011;4248;48.196;10.924;2023-03-01T03:05:00;19.95;;;11.32;;
8421;SDS011;4248;48.196;10.924;2023-03-01T03:07:27;20.05;;;12.70;;
8421;SDS011;4248;48.196;10.924;2023-03-01T03:09:53;22.07;;;12.20;;
8421;SDS011;4248;48.196;10.924;2023-03-01T03:12:18;19.50;;;11.67;;
8421;SDS011;4248;48.196;10.924;2023-03-01T03:14:44;21.37;;;13.17;;
8421;SDS011;4248;48.196;10.924;2023-03-01T03:17:09;22.90;;;12.60;;
8421;SDS011;4248;48.196;10.924;2023-03-01T03:19:35;22.33;;;12.00;;
8421;SDS011;4248;48.196;10.924;2023-03-01T03:22:00;20.47;;;11.87;;
8421;SDS011;4248;48.196;10.924;2023-03-01T03:24:26;17.40;;;11.23;;
8421;SDS011;4248;48.196;10.924;2023-03-01T03:27:02;22.15;;;12.18;;
8421;SDS011;4248;48.196;10.924;2023-03-01T03:29:29;21.00;;;12.38;;
8421;SDS011;4248;48.196;10.924;2023-03-01T03:31:54;22.33;;;12.57;;
8421;SDS011;4248;48.196;10.924;2023-03-01T03:34:20;22.70;;;11.40;;
8421;SDS011;4248;48.196;10.924;2023-03-01T03:36:46;17.57;;;10.90;;
8421;SDS011;4248;48.196;10.924;2023-03-01T03:39:12;18.87;;;11.57;;
8421;SDS011;4248;48.196;10.924;2023-03-01T03:41:37;22.10;;;12.37;;
8421;SDS011;4248;48.196;10.924;2023-03-01T03:44:03;20.37;;;12.33;;
8421;SDS011;4248;48.196;10.924;2023-03-01T03:46:28;21.87;;;11.70;;
8421;SDS011;4248;48.196;10.924;2023-03-01T03:48:55;20.45;;;11.52;;
8421;SDS011;4248;48.196;10.924;2023-03-01T03:51:20;18.40;;;11.17;;
8421;SDS011;4248;48.196;10.924;2023-03-01T03:53:47;21.08;;;11.85;;
8421;SDS011;4248;48.196;10.924;2023-03-01T03:56:13;18.00;;;11.33;;
8421;SDS011;4248;48.196;10.924;2023-03-01T03:58:39;19.67;;;11.95;;
8421;SDS011;4248;48.196;10.924;2023-03-01T04:01:05;20.27;;;12.10;;
8421;SDS011;4248;48.196;10.924;2023-03-01T04:03:31;20.60;;;11.83;;
8421;SDS011;4248;48.196;10.924;2023-03-01T04:05:58;22.35;;;12.90;;
8421;SDS011;4248;48.196;10.924;2023-03-01T04:08:25;17.60;;;10.27;;
8421;SDS011;4248;48.196;10.924;2023-03-01T04:10:52;24.17;;;13.75;;
8421;SDS011;4248;48.196;10.924;2023-03-01T04:13:22;23.48;;;12.27;;
8421;SDS011;4248;48.196;10.924;2023-03-01T04:15:50;18.40;;;12.13;;
8421;SDS011;4248;48.196;10.924;2023-03-01T04:18:17;20.83;;;11.55;;
8421;SDS011;4248;48.196;10.924;2023-03-01T04:20:44;23.27;;;13.38;;
8421;SDS011;4248;48.196;10.924;2023-03-01T04:23:15;18.30;;;12.07;;
8421;SDS011;4248;48.196;10.924;2023-03-01T04:25:46;22.13;;;13.15;;
8421;SDS011;4248;48.196;10.924;2023-03-01T04:28:23;22.95;;;12.90;;
8421;SDS011;4248;48.196;10.924;2023-03-01T04:30:56;23.67;;;12.50;;
8421;SDS011;4248;48.196;10.924;2023-03-01T04:33:24;21.20;;;12.32;;
8421;SDS011;4248;48.196;10.924;2023-03-01T04:35:50;20.67;;;13.15;;
8421;SDS011;4248;48.196;10.924;2023-03-01T04:38:18;20.83;;;12.15;;
8421;SDS011;4248;48.196;10.924;2023-03-01T04:40:45;21.20;;;11.32;;
8421;SDS011;4248;48.196;10.924;2023-03-01T04:43:11;23.90;;;12.73;;
8421;SDS011;4248;48.196;10.924;2023-03-01T04:45:39;20.33;;;11.10;;
8421;SDS011;4248;48.196;10.924;2023-03-01T04:48:05;20.42;;;11.68;;
8421;SDS011;4248;48.196;10.924;2023-03-01T04:50:31;21.63;;;12.00;;
8421;SDS011;4248;48.196;10.924;2023-03-01T04:52:57;24.73;;;12.30;;
8421;SDS011;4248;48.196;10.924;2023-03-01T04:55:24;22.27;;;12.32;;
8421;SDS011;4248;48.196;10.924;2023-03-01T04:57:51;21.27;;;12.25;;
8421;SDS011;4248;48.196;10.924;2023-03-01T05:00:17;21.30;;;11.88;;
8421;SDS011;4248;48.196;10.924;2023-03-01T05:02:47;18.55;;;10.93;;
8421;SDS011;4248;48.196;10.924;2023-03-01T05:05:21;24.13;;;12.30;;
8421;SDS011;4248;48.196;10.924;2023-03-01T05:07:53;19.85;;;11.57;;
8421;SDS011;4248;48.196;10.924;2023-03-01T05:10:21;21.65;;;12.10;;
8421;SDS011;4248;48.196;10.924;2023-03-01T05:12:47;19.98;;;11.38;;
8421;SDS011;4248;48.196;10.924;2023-03-01T05:15:13;22.43;;;11.60;;
8421;SDS011;4248;48.196;10.924;2023-03-01T05:17:39;20.15;;;11.32;;
8421;SDS011;4248;48.196;10.924;2023-03-01T05:20:05;20.33;;;11.83;;
8421;SDS011;4248;48.196;10.924;2023-03-01T05:22:34;23.25;;;11.77;;
8421;SDS011;4248;48.196;10.924;2023-03-01T05:25:00;28.50;;;12.13;;
8421;SDS011;4248;48.196;10.924;2023-03-01T05:27:26;19.70;;;11.97;;
8421;SDS011;4248;48.196;10.924;2023-03-01T05:29:52;20.63;;;10.37;;
8421;SDS011;4248;48.196;10.924;2023-03-01T05:32:17;23.70;;;13.40;;
8421;SDS011;4248;48.196;10.924;2023-03-01T05:34:43;21.93;;;11.73;;
8421;SDS011;4248;48.196;10.924;2023-03-01T05:37:11;23.38;;;11.93;;
8421;SDS011;4248;48.196;10.924;2023-03-01T05:39:38;18.75;;;11.20;;
8421;SDS011;4248;48.196;10.924;2023-03-01T05:42:04;21.70;;;12.88;;
8421;SDS011;4248;48.196;10.924;2023-03-01T05:44:30;19.80;;;11.50;;
8421;SDS011;4248;48.196;10.924;2023-03-01T05:46:56;19.03;;;12.13;;
8421;SDS011;4248;48.196;10.924;2023-03-01T05:49:21;21.60;;;12.97;;
8421;SDS011;4248;48.196;10.924;2023-03-01T05:51:49;35.75;;;13.25;;
8421;SDS011;4248;48.196;10.924;2023-03-01T05:54:16;20.20;;;12.50;;
8421;SDS011;4248;48.196;10.924;2023-03-01T05:56:43;20.17;;;11.82;;
8421;SDS011;4248;48.196;10.924;2023-03-01T05:59:09;22.30;;;12.30;;
8421;SDS011;4248;48.196;10.924;2023-03-01T06:01:34;24.47;;;12.63;;
8421;SDS011;4248;48.196;10.924;2023-03-01T06:04:01;21.48;;;11.20;;
8421;SDS011;4248;48.196;10.924;2023-03-01T06:06:27;21.90;;;12.85;;
8421;SDS011;4248;48.196;10.924;2023-03-01T06:08:53;20.33;;;12.20;;
8421;SDS011;4248;48.196;10.924;2023-03-01T06:11:19;21.97;;;12.70;;
8421;SDS011;4248;48.196;10.924;2023-03-01T06:13:45;22.23;;;11.85;;
8421;SDS011;4248;48.196;10.924;2023-03-01T06:16:12;18.10;;;11.15;;
8421;SDS011;4248;48.196;10.924;2023-03-01T06:18:39;25.60;;;12.90;;
8421;SDS011;4248;48.196;10.924;2023-03-01T06:21:05;22.13;;;12.18;;
8421;SDS011;4248;48.196;10.924;2023-03-01T06:23:33;22.50;;;13.27;;
8421;SDS011;4248;48.196;10.924;2023-03-01T06:25:59;24.77;;;11.90;;
8421;SDS011;4248;48.196;10.924;2023-03-01T06:28:25;21.63;;;11.55;;
8421;SDS011;4248;48.196;10.924;2023-03-01T06:30:51;22.13;;;11.93;;
8421;SDS011;4248;48.196;10.924;2023-03-01T06:33:18;18.73;;;10.43;;
8421;SDS011;4248;48.196;10.924;2023-03-01T06:35:45;20.58;;;12.38;;
8421;SDS011;4248;48.196;10.924;2023-03-01T06:38:11;17.20;;;11.88;;
8421;SDS011;4248;48.196;10.924;2023-03-01T06:40:40;22.98;;;11.70;;
8421;SDS011;4248;48.196;10.924;2023-03-01T06:43:06;18.80;;;11.60;;
8421;SDS011;4248;48.196;10.924;2023-03-01T06:45:32;22.48;;;11.95;;
8421;SDS011;4248;48.196;10.924;2023-03-01T06:48:02;21.35;;;12.73;;
8421;SDS011;4248;48.196;10.924;2023-03-01T06:50:29;18.70;;;11.88;;
8421;SDS011;4248;48.196;10.924;2023-03-01T06:52:55;20.80;;;10.77;;
8421;SDS011;4248;48.196;10.924;2023-03-01T06:55:21;23.48;;;12.50;;
8421;SDS011;4248;48.196;10.924;2023-03-01T06:57:47;21.93;;;12.00;;
8421;SDS011;4248;48.196;10.924;2023-03-01T07:00:13;21.97;;;12.00;;
8421;SDS011;4248;48.196;10.924;2023-03-01T07:02:39;21.38;;;12.50;;
8421;SDS011;4248;48.196;10.924;2023-03-01T07:05:05;18.80;;;11.07;;
8421;SDS011;4248;48.196;10.924;2023-03-01T07:07:31;22.67;;;12.37;;
8421;SDS011;4248;48.196;10.924;2023-03-01T07:09:57;25.95;;;12.98;;
8421;SDS011;4248;48.196;10.924;2023-03-01T07:12:23;21.13;;;11.93;;
8421;SDS011;4248;48.196;10.924;2023-03-01T07:14:48;20.73;;;11.20;;
8421;SDS011;4248;48.196;10.924;2023-03-01T07:17:14;23.87;;;13.33;;
8421;SDS011;4248;48.196;10.924;2023-03-01T07:19:39;22.20;;;11.37;;
8421;SDS011;4248;48.196;10.924;2023-03-01T07:22:05;26.13;;;13.10;;
8421;SDS011;4248;48.196;10.924;2023-03-01T07:24:32;24.30;;;11.98;;
8421;SDS011;4248;48.196;10.924;2023-03-01T07:26:58;21.35;;;11.90;;
8421;SDS011;4248;48.196;10.924;2023-03-01T07:29:24;20.13;;;11.07;;
8421;SDS011;4248;48.196;10.924;2023-03-01T07:31:50;20.50;;;11.80;;
8421;SDS011;4248;48.196;10.924;2023-03-01T07:34:15;24.33;;;11.50;;
8421;SDS011;4248;48.196;10.924;2023-03-01T07:36:41;20.87;;;11.97;;
8421;SDS011;4248;48.196;10.924;2023-03-01T07:39:08;28.50;;;13.68;;
8421;SDS011;4248;48.196;10.924;2023-03-01T07:41:35;23.13;;;12.57;;
8421;SDS011;4248;48.196;10.924;2023-03-01T07:44:00;24.80;;;13.30;;
8421;SDS011;4248;48.196;10.924;2023-03-01T07:46:26;25.93;;;12.40;;
8421;SDS011;4248;48.196;10.924;2023-03-01T07:48:52;25.40;;;12.60;;
8421;SDS011;4248;48.196;10.924;2023-03-01T07:51:17;25.70;;;12.67;;
8421;SDS011;4248;48.196;10.924;2023-03-01T07:53:45;22.80;;;11.57;;
8421;SDS011;4248;48.196;10.924;2023-03-01T07:56:13;20.83;;;12.85;;
8421;SDS011;4248;48.196;10.924;2023-03-01T07:58:43;20.92;;;10.85;;
8421;SDS011;4248;48.196;10.924;2023-03-01T08:01:11;22.90;;;12.50;;
8421;SDS011;4248;48.196;10.924;2023-03-01T08:03:38;24.50;;;12.23;;
8421;SDS011;4248;48.196;10.924;2023-03-01T08:06:05;19.27;;;11.77;;
8421;SDS011;4248;48.196;10.924;2023-03-01T08:08:33;21.30;;;12.80;;
8421;SDS011;4248;48.196;10.924;2023-03-01T08:10:59;23.55;;;13.27;;
8421;SDS011;4248;48.196;10.924;2023-03-01T08:13:26;22.17;;;12.43;;
8421;SDS011;4248;48.196;10.924;2023-03-01T08:15:52;20.15;;;13.18;;
8421;SDS011;4248;48.196;10.924;2023-03-01T08:18:19;24.17;;;13.00;;
8421;SDS011;4248;48.196;10.924;2023-03-01T08:20:46;24.27;;;12.70;;
8421;SDS011;4248;48.196;10.924;2023-03-01T08:23:12;23.33;;;13.20;;
8421;SDS011;4248;48.196;10.924;2023-03-01T08:25:38;27.35;;;12.00;;
8421;SDS011;4248;48.196;10.924;2023-03-01T08:28:04;19.60;;;11.83;;
8421;SDS011;4248;48.196;10.924;2023-03-01T08:30:30;23.60;;;15.15;;
8421;SDS011;4248;48.196;10.924;2023-03-01T08:32:56;28.07;;;14.13;;
8421;SDS011;4248;48.196;10.924;2023-03-01T08:35:22;25.73;;;13.03;;
8421;SDS011;4248;48.196;10.924;2023-03-01T08:37:48;32.97;;;18.17;;
8421;SDS011;4248;48.196;10.924;2023-03-01T08:40:14;27.67;;;14.80;;
8421;SDS011;4248;48.196;10.924;2023-03-01T08:42:40;21.77;;;13.52;;
8421;SDS011;4248;48.196;10.924;2023-03-01T08:45:07;22.83;;;13.25;;
8421;SDS011;4248;48.196;10.924;2023-03-01T08:47:34;27.42;;;16.08;;
8421;SDS011;4248;48.196;10.924;2023-03-01T08:50:00;26.10;;;14.50;;
8421;SDS011;4248;48.196;10.924;2023-03-01T08:52:26;24.60;;;13.27;;
8421;SDS011;4248;48.196;10.924;2023-03-01T08:54:52;17.60;;;11.65;;
8421;SDS011;4248;48.196;10.924;2023-03-01T08:57:18;23.93;;;12.50;;
8421;SDS011;4248;48.196;10.924;2023-03-01T08:59:44;23.10;;;13.50;;
8421;SDS011;4248;48.196;10.924;2023-03-01T09:02:14;21.40;;;12.20;;
8421;SDS011;4248;48.196;10.924;2023-03-01T09:04:41;26.80;;;16.45;;
8421;SDS011;4248;48.196;10.924;2023-03-01T09:07:07;24.10;;;14.47;;
8421;SDS011;4248;48.196;10.924;2023-03-01T09:09:33;30.15;;;13.50;;
8421;SDS011;4248;48.196;10.924;2023-03-01T09:11:59;22.58;;;11.98;;
8421;SDS011;4248;48.196;10.924;2023-03-01T09:14:26;20.85;;;12.63;;
8421;SDS011;4248;48.196;10.924;2023-03-01T09:16:51;20.87;;;12.80;;
8421;SDS011;4248;48.196;10.924;2023-03-01T09:19:18;18.65;;;10.55;;
8421;SDS011;4248;48.196;10.924;2023-03-01T09:21:44;21.40;;;12.27;;
8421;SDS011;4248;48.196;10.924;2023-03-01T09:24:20;24.73;;;14.25;;
8421;SDS011;4248;48.196;10.924;2023-03-01T09:26:47;22.20;;;13.15;;
8421;SDS011;4248;48.196;10.924;2023-03-01T09:29:13;22.45;;;13.32;;
8421;SDS011;4248;48.196;10.924;2023-03-01T09:31:40;25.95;;;13.93;;
8421;SDS011;4248;48.196;10.924;2023-03-01T09:34:06;26.02;;;14.07;;
8421;SDS011;4248;48.196;10.924;2023-03-01T09:36:33;25.10;;;13.05;;
8421;SDS011;4248;48.196;10.924;2023-03-01T09:38:59;24.08;;;13.23;;
8421;SDS011;4248;48.196;10.924;2023-03-01T09:44:33;21.45;;;12.50;;
8421;SDS011;4248;48.196;10.924;2023-03-01T09:46:59;20.85;;;12.75;;
8421;SDS011;4248;48.196;10.924;2023-03-01T09:49:27;23.48;;;13.30;;
8421;SDS011;4248;48.196;10.924;2023-03-01T09:54:52;24.88;;;13.30;;
8421;SDS011;4248;48.196;10.924;2023-03-01T09:57:20;24.67;;;14.10;;
8421;SDS011;4248;48.196;10.924;2023-03-01T09:59:55;25.80;;;14.65;;
8421;SDS011;4248;48.196;10.924;2023-03-01T10:05:34;23.95;;;14.80;;
8421;SDS011;4248;48.196;10.924;2023-03-01T10:10:37;26.45;;;13.70;;
8421;SDS011;4248;48.196;10.924;2023-03-01T10:16:00;30.48;;;14.75;;
8421;SDS011;4248;48.196;10.924;2023-03-01T10:18:47;29.10;;;14.35;;
8421;SDS011;4248;48.196;10.924;2023-03-01T10:21:19;26.48;;;13.60;;
8421;SDS011;4248;48.196;10.924;2023-03-01T10:23:45;22.70;;;13.45;;
8421;SDS011;4248;48.196;10.924;2023-03-01T10:29:02;25.95;;;14.20;;
8421;SDS011;4248;48.196;10.924;2023-03-01T10:31:47;26.35;;;15.00;;
8421;SDS011;4248;48.196;10.924;2023-03-01T10:34:27;28.38;;;16.38;;
8421;SDS011;4248;48.196;10.924;2023-03-01T10:37:01;29.88;;;14.27;;
8421;SDS011;4248;48.196;10.924;2023-03-01T10:39:35;26.80;;;14.67;;
8421;SDS011;4248;48.196;10.924;2023-03-01T10:42:02;25.70;;;13.97;;
8421;SDS011;4248;48.196;10.924;2023-03-01T10:47:42;29.75;;;15.43;;
8421;SDS011;4248;48.196;10.924;2023-03-01T10:50:17;26.47;;;14.00;;
8421;SDS011;4248;48.196;10.924;2023-03-01T10:52:55;25.57;;;14.00;;
8421;SDS011;4248;48.196;10.924;2023-03-01T10:58:33;24.50;;;13.40;;
8421;SDS011;4248;48.196;10.924;2023-03-01T11:00:53;22.50;;;12.30;;
8421;SDS011;4248;48.196;10.924;2023-03-01T11:03:31;26.90;;;14.77;;
8421;SDS011;4248;48.196;10.924;2023-03-01T11:13:54;25.20;;;14.00;;
8421;SDS011;4248;48.196;10.924;2023-03-01T11:16:41;30.52;;;14.60;;
8421;SDS011;4248;48.196;10.924;2023-03-01T11:21:50;26.10;;;14.70;;
8421;SDS011;4248;48.196;10.924;2023-03-01T11:24:30;26.48;;;15.00;;
8421;SDS011;4248;48.196;10.924;2023-03-01T11:27:01;36.70;;;14.03;;
8421;SDS011;4248;48.196;10.924;2023-03-01T11:29:32;30.70;;;15.03;;
8421;SDS011;4248;48.196;10.924;2023-03-01T11:32:02;27.40;;;14.37;;
8421;SDS011;4248;48.196;10.924;2023-03-01T11:34:40;22.53;;;12.87;;
8421;SDS011;4248;48.196;10.924;2023-03-01T11:45:09;23.43;;;13.37;;
8421;SDS011;4248;48.196;10.924;2023-03-01T11:50:39;26.10;;;14.40;;
8421;SDS011;4248;48.196;10.924;2023-03-01T11:53:26;27.20;;;15.60;;
8421;SDS011;4248;48.196;10.924;2023-03-01T11:56:25;26.77;;;13.97;;
8421;SDS011;4248;48.196;10.924;2023-03-01T12:07:30;33.00;;;16.00;;
8421;SDS011;4248;48.196;10.924;2023-03-01T12:10:23;29.50;;;16.40;;
8421;SDS011;4248;48.196;10.924;2023-03-01T12:23:49;23.40;;;13.53;;
8421;SDS011;4248;48.196;10.924;2023-03-01T12:47:58;28.47;;;15.27;;
8421;SDS011;4248;48.196;10.924;2023-03-01T12:50:44;25.20;;;14.07;;
8421;SDS011;4248;48.196;10.924;2023-03-01T12:53:29;27.77;;;15.90;;
8421;SDS011;4248;48.196;10.924;2023-03-01T12:56:05;26.30;;;15.80;;
8421;SDS011;4248;48.196;10.924;2023-03-01T13:01:03;28.40;;;16.33;;
8421;SDS011;4248;48.196;10.924;2023-03-01T13:09:46;28.33;;;16.10;;
8421;SDS011;4248;48.196;10.924;2023-03-01T13:17:48;22.40;;;13.87;;
8421;SDS011;4248;48.196;10.924;2023-03-01T13:20:17;26.67;;;16.57;;
8421;SDS011;4248;48.196;10.924;2023-03-01T13:22:46;28.70;;;16.57;;
8421;SDS011;4248;48.196;10.924;2023-03-01T13:25:19;25.03;;;14.73;;
8421;SDS011;4248;48.196;10.924;2023-03-01T13:27:45;28.90;;;15.97;;
8421;SDS011;4248;48.196;10.924;2023-03-01T13:34:00;27.00;;;15.30;;
8421;SDS011;4248;48.196;10.924;2023-03-01T13:36:05;29.83;;;16.00;;
8421;SDS011;4248;48.196;10.924;2023-03-01T13:41:59;25.67;;;13.80;;
8421;SDS011;4248;48.196;10.924;2023-03-01T13:46:59;24.87;;;14.53;;
8421;SDS011;4248;48.196;10.924;2023-03-01T13:49:34;23.83;;;14.20;;
8421;SDS011;4248;48.196;10.924;2023-03-01T13:52:21;26.80;;;15.80;;
8421;SDS011;4248;48.196;10.924;2023-03-01T13:54:52;28.07;;;15.60;;
8421;SDS011;4248;48.196;10.924;2023-03-01T13:57:20;28.60;;;16.50;;
8421;SDS011;4248;48.196;10.924;2023-03-01T13:59:50;27.30;;;15.57;;
8421;SDS011;4248;48.196;10.924;2023-03-01T14:02:16;26.20;;;15.27;;
8421;SDS011;4248;48.196;10.924;2023-03-01T14:04:42;26.03;;;14.10;;
8421;SDS011;4248;48.196;10.924;2023-03-01T14:07:29;28.87;;;16.90;;
8421;SDS011;4248;48.196;10.924;2023-03-01T14:10:01;27.30;;;14.90;;
8421;SDS011;4248;48.196;10.924;2023-03-01T14:12:43;29.30;;;16.43;;
8421;SDS011;4248;48.196;10.924;2023-03-01T14:20:50;27.50;;;15.73;;
8421;SDS011;4248;48.196;10.924;2023-03-01T14:23:23;26.07;;;14.60;;
8421;SDS011;4248;48.196;10.924;2023-03-01T14:25:50;22.37;;;13.57;;
8421;SDS011;4248;48.196;10.924;2023-03-01T14:28:23;29.63;;;16.00;;
8421;SDS011;4248;48.196;10.924;2023-03-01T14:30:52;30.00;;;15.90;;
8421;SDS011;4248;48.196;10.924;2023-03-01T14:33:26;28.03;;;15.17;;
8421;SDS011;4248;48.196;10.924;2023-03-01T14:36:01;25.17;;;14.43;;
8421;SDS011;4248;48.196;10.924;2023-03-01T14:38:42;21.57;;;14.43;;
8421;SDS011;4248;48.196;10.924;2023-03-01T14:41:13;25.23;;;14.90;;
8421;SDS011;4248;48.196;10.924;2023-03-01T14:44:05;28.40;;;16.10;;
8421;SDS011;4248;48.196;10.924;2023-03-01T14:46:33;22.07;;;13.80;;
8421;SDS011;4248;48.196;10.924;2023-03-01T14:49:04;25.00;;;14.60;;
8421;SDS011;4248;48.196;10.924;2023-03-01T14:51:35;27.67;;;15.23;;
8421;SDS011;4248;48.196;10.924;2023-03-01T14:54:03;25.53;;;13.70;;
8421;SDS011;4248;48.196;10.924;2023-03-01T14:56:45;27.37;;;15.50;;
8421;SDS011;4248;48.196;10.924;2023-03-01T14:59:11;27.90;;;15.50;;
8421;SDS011;4248;48.196;10.924;2023-03-01T15:01:37;24.43;;;13.50;;
8421;SDS011;4248;48.196;10.924;2023-03-01T15:04:04;22.77;;;13.70;;
8421;SDS011;4248;48.196;10.924;2023-03-01T15:06:30;27.20;;;13.60;;
8421;SDS011;4248;48.196;10.924;2023-03-01T15:08:56;21.93;;;13.47;;
8421;SDS011;4248;48.196;10.924;2023-03-01T15:11:24;23.57;;;14.47;;
8421;SDS011;4248;48.196;10.924;2023-03-01T15:13:54;24.67;;;12.87;;
8421;SDS011;4248;48.196;10.924;2023-03-01T15:16:26;23.97;;;13.57;;
8421;SDS011;4248;48.196;10.924;2023-03-01T15:18:58;24.80;;;13.57;;
8421;SDS011;4248;48.196;10.924;2023-03-01T15:21:48;24.50;;;12.77;;
8421;SDS011;4248;48.196;10.924;2023-03-01T15:24:20;23.47;;;13.03;;
8421;SDS011;4248;48.196;10.924;2023-03-01T15:29:24;23.93;;;14.07;;
8421;SDS011;4248;48.196;10.924;2023-03-01T15:32:23;20.47;;;13.77;;
8421;SDS011;4248;48.196;10.924;2023-03-01T15:34:56;26.73;;;13.77;;
8421;SDS011;4248;48.196;10.924;2023-03-01T15:37:39;22.20;;;13.90;;
8421;SDS011;4248;48.196;10.924;2023-03-01T15:40:22;22.40;;;13.37;;
8421;SDS011;4248;48.196;10.924;2023-03-01T15:42:56;21.37;;;13.20;;
8421;SDS011;4248;48.196;10.924;2023-03-01T15:45:24;24.10;;;13.10;;
8421;SDS011;4248;48.196;10.924;2023-03-01T15:47:55;20.30;;;12.50;;
8421;SDS011;4248;48.196;10.924;2023-03-01T15:50:24;24.70;;;14.00;;
8421;SDS011;4248;48.196;10.924;2023-03-01T15:52:52;20.63;;;12.43;;
8421;SDS011;4248;48.196;10.924;2023-03-01T15:55:20;23.30;;;12.33;;
8421;SDS011;4248;48.196;10.924;2023-03-01T15:57:48;21.90;;;13.57;;
8421;SDS011;4248;48.196;10.924;2023-03-01T16:00:14;24.17;;;15.30;;
8421;SDS011;4248;48.196;10.924;2023-03-01T16:02:42;28.63;;;15.10;;
8421;SDS011;4248;48.196;10.924;2023-03-01T16:05:24;24.43;;;13.90;;
8421;SDS011;4248;48.196;10.924;2023-03-01T16:07:52;23.50;;;13.33;;
8421;SDS011;4248;48.196;10.924;2023-03-01T16:10:18;26.70;;;15.70;;
8421;SDS011;4248;48.196;10.924;2023-03-01T16:12:44;29.13;;;14.43;;
8421;SDS011;4248;48.196;10.924;2023-03-01T16:15:17;26.50;;;13.67;;
8421;SDS011;4248;48.196;10.924;2023-03-01T16:17:52;21.13;;;13.10;;
8421;SDS011;4248;48.196;10.924;2023-03-01T16:20:18;20.90;;;13.70;;
8421;SDS011;4248;48.196;10.924;2023-03-01T16:22:44;27.50;;;14.50;;
8421;SDS011;4248;48.196;10.924;2023-03-01T16:25:11;25.17;;;14.50;;
8421;SDS011;4248;48.196;10.924;2023-03-01T16:27:38;24.33;;;13.03;;
8421;SDS011;4248;48.196;10.924;2023-03-01T16:30:07;25.03;;;14.80;;
8421;SDS011;4248;48.196;10.924;2023-03-01T16:32:37;26.60;;;15.60;;
8421;SDS011;4248;48.196;10.924;2023-03-01T16:35:07;28.93;;;15.10;;
8421;SDS011;4248;48.196;10.924;2023-03-01T16:37:34;28.00;;;14.60;;
8421;SDS011;4248;48.196;10.924;2023-03-01T16:40:00;25.70;;;13.70;;
8421;SDS011;4248;48.196;10.924;2023-03-01T16:42:29;25.37;;;13.27;;
8421;SDS011;4248;48.196;10.924;2023-03-01T16:44:59;24.27;;;13.80;;
8421;SDS011;4248;48.196;10.924;2023-03-01T16:47:25;22.60;;;13.10;;
8421;SDS011;4248;48.196;10.924;2023-03-01T16:49:51;25.10;;;13.67;;
8421;SDS011;4248;48.196;10.924;2023-03-01T16:52:17;24.10;;;14.20;;
8421;SDS011;4248;48.196;10.924;2023-03-01T16:54:43;47.90;;;24.80;;
8421;SDS011;4248;48.196;10.924;2023-03-01T16:57:09;46.53;;;22.03;;